Share

Bucks, AL (36512)

Markwood (KALCITRO1) Elev 308 ft | 31.08 °N, 88.24 °W | Change Station
Active Advisory: Flood Warning Active Notice: Record Report

Current weather conditions updated 23 seconds ago

Partly Cloudy
Partly Cloudy
76.5 °F
Feels Like 78 °F
N
2.0
Wind Variable Wind from SSW
Gusts 4.0 mph
Sunrise 6:19 AM
Sunset 7:23 PM
Moon Waning Gibbous

Today is forecast to be Much Warmer than yesterday.

Pressure 30.07 in
Visibility 10.0 miles
Clouds Few 20000 ft
Heat Index 78 °F
Dew Point 49 °F
Humidity 38%
Rainfall 0.01 in
Snow Depth Not available.
UV 11 out of 16
Pollen 8.20 out of 12
Ozone Good
Flu Activity Sporadic
METAR KMOB 191856Z 34012G20KT 10SM FEW200 24/10 A3007 RMK AO2 PK WND 34026/1806 SLP181 T02440100

More Conditions Fewer Conditions

Pressure 30.07 in
Visibility 10.0 miles
Clouds Few 20000 ft
Heat Index 78 °F
Dew Point 49 °F
Humidity 38%
Rainfall 0.01 in
Snow Depth Not available.
UV 11 out of 16
Pollen 8.20 out of 12
Ozone Good
Flu Activity Sporadic
METAR KMOB 191856Z 34012G20KT 10SM FEW200 24/10 A3007 RMK AO2 PK WND 34026/1806 SLP181 T02440100

More Conditions Fewer Conditions

10-Day Weather Forecast

Almanac

Astronomy

Apr. 19, 2014 Rise Set
Actual Time 6:19 AM CDT 7:23 PM CDT
Civil Twilight 5:54 AM CDT 7:48 PM CDT
Nautical Twilight 5:25 AM CDT 8:17 PM CDT
Astronomical Twilight 4:54 AM CDT 8:48 PM CDT
Moon 11:55 PM CDT 9:46 AM CDT
Length of Visible Light 13h 53m
Length of Day
13h 03m
Tomorrow will be 1m 46s longer.
Waning Gibbous, 77% of the Moon is Illuminated
Today
Waning Gibbous
Apr 22
Last Quarter
Apr 29
New
May 6
First Quarter
May 14
Full

Today's Extremes

State Highs State Lows

Community

  • Piriapolis
    Piriapolis
  • A Glorious Morning
    A Glorious Morning
  • Tender Rays Of Hope
    Tender Rays Of Hope
  • Bleeding Hearts
    Bleeding Hearts
  • Sunset Silhouettes
    Sunset Silhouettes

WunderPhotos

Upload Photos

1,702,845 photos uploaded!

WunderBlogs® & News

Nearby

Air Quality

  Air Quality AQ Index Pollutant
Yesterday Good
OZONE
Current Good
OZONE
Saturday Good
OZONE
Sunday Good
OZONE
Monday Good
OZONE

Snow Depth

Station Depth Elevation
No new snow has been reported.

Coastal Water Temperatures

Place Temperature
Mobile State Docks, AL 62.1 °F
Coast Guard Sector Mobile, AL 63.0 °F

Earthquake Activity

City Distance Mag. Time & Date
No recent earthquake activity has been reported nearby.
Minimum magnitude displayed is 2.5.

Nearby Weather Stations

Station Location Temp. Heat Index Dew Point Humidity Wind Precip. Elev Updated Type
Markwood, Citronelle, AL 76.5 °F 78 °F 49 °F 38% SSW  at  2.0 mph 0.00 in / hr 308 ft 2:07 PM CDT Normal

Show More Stations Show Fewer Stations

What do you think?

We're not finished. Please let us know what you like, what you don't like, and what you are still missing.